Meteo Giornale » Osservazioni meteo Iran » Shiraz
ore: 16:30 - Osservazioni Meteo Shiraz
Lat. 29° 32' N Lon. 52° 35' E Alt. 1486 metri s.l.m.
36 °C
Sereno
Temp. 24 Ore
22 °C
38 °C
Ovest
18.5 Km/h
Dew point -3 °C
Umidità 8 %
Visibilità 10 Km
Il sole sorge alle ore 05:37
Il sole tramonta alle ore 18:22
| Data e Ora | Cielo e Fenomeni | T °C | DP °C | Um. % | Pres. hPa | Vis. km | Vento km/h | |
|---|---|---|---|---|---|---|---|---|
| Oggi h: 16:30 | Sereno | 36 | -3 | 8 | 1013 | 10 | O 18.5 | |
| Oggi h: 16:00 | Sereno | 37 | 0 | 9 | 1013 | 10 | O 18.5 | |
| Oggi h: 15:30 | Sereno | 37 | 0 | 9 | 1013 | 10 | O/NO 18.5 | |
| Oggi h: 15:00 | Sereno | 37 | 2 | 11 | 1012 | 10 | O/NO 14.8 | |
| Oggi h: 14:30 | Sereno | 36 | 2 | 11 | 1015 | 10 | N 13 | |
| Oggi h: 14:00 | Sereno | 38 | 2 | 10 | 1013 | 10 | N 0 | |
| Oggi h: 13:30 | Sereno | 37 | 3 | 12 | 1013 | 10 | N 0 | |
| Oggi h: 13:00 | Sereno | 37 | 3 | 12 | 1014 | 10 | N/NO 7.4 | |
| Oggi h: 12:30 | Sereno | 37 | 3 | 12 | 1014 | 10 | N/NO 7.4 | |
| Oggi h: 12:00 | Sereno | 37 | 3 | 12 | 1014 | 10 | N/NO 7.4 | |
| Oggi h: 11:30 | Sereno | 36 | 4 | 13 | 1015 | 10 | O 7.4 | |
| Oggi h: 11:00 | Sereno | 36 | 3 | 12 | 1015 | 10 | S/SO 7.4 | |
| Oggi h: 10:30 | Sereno | 35 | 4 | 14 | 1016 | 10 | S/SO 7.4 | |
| Oggi h: 10:00 | Sereno | 34 | 4 | 15 | 1016 | 10 | N 0 | |
| Oggi h: 09:30 | Sereno | 34 | 4 | 15 | 1016 | 10 | N 0 | |
| Oggi h: 09:00 | Sereno | 33 | 4 | 16 | 1016 | 10 | N 0 | |
| Oggi h: 08:30 | Sereno | 30 | 5 | 20 | 1016 | 10 | E 7.4 | |
| Oggi h: 08:00 | Sereno | 30 | 7 | 23 | 1016 | 10 | N 0 | |
| Oggi h: 07:30 | Sereno | 28 | 5 | 23 | 1016 | 10 | N 0 | |
| Oggi h: 07:00 | Sereno | 27 | 5 | 24 | 1016 | 10 | N 0 | |
| Oggi h: 06:30 | Sereno | 24 | 4 | 27 | 1015 | 10 | NO 7.4 | |
| Oggi h: 06:00 | Sereno | 22 | 3 | 28 | 1015 | 10 | O/NO 7.4 | |
| Oggi h: 05:30 | Sereno | 22 | 4 | 30 | 1015 | 10 | N 0 | |
| Oggi h: 05:00 | Sereno | 24 | 4 | 27 | 1015 | 10 | N 0 | |
| Oggi h: 04:30 | Sereno | 26 | 3 | 22 | 1014 | 10 | NO 7.4 | |
| Oggi h: 04:00 | Sereno | 27 | 3 | 21 | 1014 | 10 | N/NO 7.4 | |
| Oggi h: 03:30 | Sereno | 28 | 3 | 20 | 1014 | 10 | N 0 | |
| Oggi h: 03:00 | Sereno | 28 | 2 | 18 | 1014 | 10 | NO 7.4 | |
| Oggi h: 02:30 | Sereno | 29 | 3 | 18 | 1014 | 10 | NO 7.4 | |
| Oggi h: 02:00 | Sereno | 30 | 3 | 17 | 1014 | 10 | N 0 | |
| Oggi h: 01:30 | Sereno | 28 | 3 | 20 | 1014 | 10 | N 0 | |
| Oggi h: 01:00 | Poco Nuvoloso | 29 | 3 | 18 | 1014 | 10 | N 0 | |
| Oggi h: 00:30 | Poco Nuvoloso | 29 | 3 | 18 | 1014 | 10 | N 0 | |
| Oggi h: 00:00 | Poco Nuvoloso | 31 | 3 | 16 | 1014 | 10 | N/NO 11.1 | |
| Ieri h: 23:30 | Poco Nuvoloso | 31 | 3 | 16 | 1014 | 10 | N 0 | |
| Ieri h: 23:00 | Poco Nuvoloso | 32 | 3 | 15 | 1014 | 10 | N 7.4 | |
| Ieri h: 22:30 | Poco Nuvoloso | 32 | 3 | 15 | 1014 | 10 | N 18.5 | |
| Ieri h: 22:00 | Poco Nuvoloso | 33 | 4 | 16 | 1013 | 10 | N/NO 11.1 | |
| Ieri h: 21:30 | Poco Nuvoloso | 33 | 4 | 16 | 1013 | 10 | N/NO 18.5 | |
| Ieri h: 21:00 | Poco Nuvoloso | 33 | 6 | 18 | 1013 | 10 | N/NO 14.8 | |
| Ieri h: 20:30 | Poco Nuvoloso | 33 | 5 | 17 | 1013 | 10 | N/NO 11.1 | |
| Ieri h: 20:00 | Poco Nuvoloso | 33 | 8 | 21 | 1013 | 10 | N 0 | |
| Ieri h: 19:30 | Poco Nuvoloso | 33 | 8 | 21 | 1013 | 10 | N 0 | |
| Ieri h: 19:00 | Poco Nuvoloso | 32 | 3 | 15 | 1012 | 10 | N 0 | |
| Ieri h: 18:30 | Poco Nuvoloso | 33 | 5 | 17 | 1012 | 10 | N 0 | |
| Ieri h: 18:00 | Poco Nuvoloso | 35 | 4 | 14 | 1012 | 10 | N 0 | |
| Ieri h: 17:30 | Nuvoloso | 36 | 2 | 11 | 1012 | 10 | N 0 | |



